createdAt,value
2017-12-21T00:00:56.451Z,47.70
2017-12-21T00:03:24.658Z,50.43
2017-12-21T00:05:53.572Z,51.13
2017-12-21T00:08:22.498Z,43.10
2017-12-21T00:10:50.637Z,45.90
2017-12-21T00:13:18.792Z,55.43
2017-12-21T00:15:47.194Z,51.23
2017-12-21T00:18:15.321Z,49.10
2017-12-21T00:20:44.233Z,51.47
2017-12-21T00:23:13.136Z,44.43
2017-12-21T00:25:42.020Z,49.50
2017-12-21T00:28:10.148Z,49.50
2017-12-21T00:30:38.289Z,50.07
2017-12-21T00:33:06.431Z,43.90
2017-12-21T00:35:35.362Z,46.57
2017-12-21T00:38:03.497Z,47.80
2017-12-21T00:40:33.069Z,48.70
2017-12-21T00:43:02.705Z,44.27
2017-12-21T00:45:30.846Z,46.23
2017-12-21T00:47:58.964Z,46.77
2017-12-21T00:50:27.124Z,58.33
2017-12-21T00:52:55.269Z,51.77
2017-12-21T00:55:24.176Z,55.03
2017-12-21T00:57:53.070Z,50.07
2017-12-21T01:00:21.986Z,49.50
2017-12-21T01:02:50.871Z,57.50
2017-12-21T01:05:19.785Z,53.90
2017-12-21T01:07:48.681Z,47.10
2017-12-21T01:10:17.597Z,51.57
2017-12-21T01:12:45.725Z,53.20
2017-12-21T01:15:13.870Z,55.17
2017-12-21T01:17:42.008Z,49.60
2017-12-21T01:20:10.157Z,48.97
2017-12-21T01:22:38.284Z,54.87
2017-12-21T01:25:06.433Z,58.20
2017-12-21T01:27:34.584Z,51.20
2017-12-21T01:30:06.253Z,50.47
2017-12-21T01:32:34.364Z,51.70
2017-12-21T01:35:02.505Z,51.77
2017-12-21T01:37:30.641Z,59.23
2017-12-21T01:39:58.773Z,65.43
2017-12-21T01:42:29.738Z,61.10
2017-12-21T01:44:57.868Z,63.00
2017-12-21T01:47:27.898Z,67.40
2017-12-21T01:49:56.024Z,63.53
2017-12-21T01:52:24.161Z,58.03
2017-12-21T01:54:52.306Z,59.10
2017-12-21T01:57:20.515Z,59.83
2017-12-21T01:59:48.620Z,62.47
2017-12-21T02:02:16.761Z,65.33
2017-12-21T02:04:44.891Z,58.87
2017-12-21T02:07:13.045Z,75.33
2017-12-21T02:09:41.170Z,50.20
2017-12-21T02:12:09.321Z,59.30
2017-12-21T02:14:37.466Z,57.13
2017-12-21T02:17:07.074Z,54.20
2017-12-21T02:19:35.227Z,55.03
2017-12-21T02:22:04.121Z,52.77
2017-12-21T02:24:33.024Z,52.27
2017-12-21T02:27:01.930Z,50.43
2017-12-21T02:29:30.073Z,54.73
2017-12-21T02:31:58.205Z,48.27
2017-12-21T02:34:27.113Z,56.57
2017-12-21T02:36:56.021Z,51.27
2017-12-21T02:39:24.934Z,52.13
2017-12-21T02:41:54.157Z,51.33
2017-12-21T02:44:22.351Z,59.77
2017-12-21T02:46:50.477Z,49.20
2017-12-21T02:49:18.609Z,57.20
2017-12-21T02:51:46.744Z,44.20
2017-12-21T02:54:14.876Z,47.87
2017-12-21T02:56:43.001Z,45.00
2017-12-21T02:59:11.197Z,50.77
2017-12-21T03:01:39.366Z,50.90
2017-12-21T03:04:07.512Z,50.27
2017-12-21T03:06:36.161Z,50.77
2017-12-21T03:09:04.326Z,46.90
2017-12-21T03:11:33.364Z,51.50
2017-12-21T03:14:01.492Z,51.53
2017-12-21T03:16:29.641Z,48.83
2017-12-21T03:18:57.797Z,51.17
2017-12-21T03:21:27.966Z,48.07
2017-12-21T03:23:56.099Z,48.47
2017-12-21T03:26:24.245Z,48.83
2017-12-21T03:28:52.959Z,43.47
2017-12-21T03:31:22.817Z,51.47
2017-12-21T03:33:51.796Z,49.33
2017-12-21T03:36:19.943Z,50.20
2017-12-21T03:38:48.072Z,53.40
2017-12-21T03:41:16.228Z,47.00
2017-12-21T03:43:45.009Z,54.57
2017-12-21T03:46:13.144Z,44.83
2017-12-21T03:48:42.050Z,47.87
2017-12-21T03:51:10.182Z,45.73
2017-12-21T03:53:38.768Z,42.97
2017-12-21T03:56:06.919Z,46.97
2017-12-21T03:58:35.069Z,50.07
2017-12-21T04:01:03.213Z,44.53
2017-12-21T04:03:31.353Z,48.97
2017-12-21T04:06:00.253Z,49.30
2017-12-21T04:08:29.191Z,47.80
2017-12-21T04:10:57.309Z,49.00
2017-12-21T04:13:25.436Z,42.37
2017-12-21T04:15:54.344Z,49.77
2017-12-21T04:18:23.245Z,50.30
2017-12-21T04:20:52.170Z,45.87
2017-12-21T04:23:20.297Z,51.23
2017-12-21T04:25:48.457Z,47.50
2017-12-21T04:28:16.852Z,47.03
2017-12-21T04:30:44.996Z,48.63
2017-12-21T04:33:13.904Z,46.37
2017-12-21T04:35:42.992Z,49.33
2017-12-21T04:38:11.103Z,43.27
2017-12-21T04:40:40.017Z,44.10
2017-12-21T04:43:08.153Z,49.47
2017-12-21T04:45:36.292Z,45.63
2017-12-21T04:48:05.190Z,43.83
2017-12-21T04:50:33.332Z,41.53
2017-12-21T04:53:01.488Z,53.77
2017-12-21T04:55:30.343Z,45.30
2017-12-21T04:57:59.261Z,53.03
2017-12-21T05:00:28.152Z,42.73
2017-12-21T05:02:57.076Z,49.17
2017-12-21T05:05:25.977Z,42.73
2017-12-21T05:07:54.880Z,51.07
2017-12-21T05:10:23.784Z,47.07
2017-12-21T05:12:52.686Z,50.73
2017-12-21T05:15:21.576Z,54.13
2017-12-21T05:17:50.484Z,48.47
2017-12-21T05:20:20.094Z,46.27
2017-12-21T05:22:48.232Z,49.00
2017-12-21T05:25:16.360Z,50.37
2017-12-21T05:27:44.526Z,55.33
2017-12-21T05:30:12.657Z,46.83
2017-12-21T05:32:41.559Z,48.37
2017-12-21T05:35:09.697Z,50.47
2017-12-21T05:37:37.896Z,51.83
2017-12-21T05:40:06.018Z,54.17
2017-12-21T05:42:34.192Z,54.40
2017-12-21T05:45:03.076Z,57.60
2017-12-21T05:47:31.224Z,53.87
2017-12-21T05:49:59.368Z,51.83
2017-12-21T05:52:28.285Z,56.50
2017-12-21T05:54:57.196Z,50.83
2017-12-21T05:57:25.328Z,49.50
2017-12-21T05:59:53.478Z,49.67
2017-12-21T06:02:21.616Z,49.70
2017-12-21T06:04:49.777Z,49.63
2017-12-21T06:07:18.899Z,47.70
2017-12-21T06:09:47.036Z,47.33
2017-12-21T06:12:15.184Z,47.43
2017-12-21T06:14:43.312Z,45.10
2017-12-21T06:17:12.421Z,50.00
2017-12-21T06:19:40.567Z,48.97
2017-12-21T06:22:08.720Z,44.60
2017-12-21T06:24:36.830Z,44.77
2017-12-21T06:27:05.078Z,44.10
2017-12-21T06:29:33.199Z,41.33
2017-12-21T06:32:01.413Z,40.03
2017-12-21T06:34:30.333Z,40.70
2017-12-21T06:36:58.472Z,40.90
2017-12-21T06:39:26.621Z,39.10
2017-12-21T06:41:55.661Z,40.43
2017-12-21T06:44:23.796Z,39.30
2017-12-21T06:46:51.941Z,39.67
2017-12-21T06:49:20.079Z,40.93
2017-12-21T06:51:48.221Z,44.63
2017-12-21T06:54:16.350Z,42.87
2017-12-21T06:56:44.517Z,45.23
2017-12-21T06:59:13.414Z,43.77
2017-12-21T07:01:42.325Z,40.13
2017-12-21T07:04:11.243Z,40.70
2017-12-21T07:06:39.428Z,40.63
2017-12-21T07:09:07.564Z,34.30
2017-12-21T07:11:35.718Z,35.93
2017-12-21T07:14:03.847Z,43.97
2017-12-21T07:16:32.014Z,40.73
2017-12-21T07:19:00.304Z,36.20
2017-12-21T07:21:28.463Z,40.57
2017-12-21T07:23:56.593Z,43.53
2017-12-21T07:26:24.772Z,38.80
2017-12-21T07:28:52.905Z,40.40
2017-12-21T07:31:21.052Z,37.40
2017-12-21T07:33:49.193Z,43.10
2017-12-21T07:36:17.324Z,39.03
2017-12-21T07:38:45.458Z,38.60
2017-12-21T07:41:13.635Z,38.90
2017-12-21T07:43:42.541Z,38.87
2017-12-21T07:46:10.685Z,40.43
2017-12-21T07:48:38.817Z,38.43
2017-12-21T07:51:07.713Z,36.40
2017-12-21T07:53:35.857Z,38.30
2017-12-21T07:56:04.186Z,42.20
2017-12-21T07:58:33.084Z,38.33
2017-12-21T08:01:01.241Z,35.10
2017-12-21T08:03:30.294Z,35.63
2017-12-21T08:05:58.425Z,37.03
2017-12-21T08:08:26.562Z,38.13
2017-12-21T08:10:55.614Z,36.00
2017-12-21T08:13:23.773Z,34.70
2017-12-21T08:15:51.898Z,36.57
2017-12-21T08:18:20.054Z,35.83
2017-12-21T08:20:48.184Z,36.80
2017-12-21T08:23:17.081Z,35.47
2017-12-21T08:25:45.229Z,36.40
2017-12-21T08:28:13.382Z,33.30
2017-12-21T08:30:42.290Z,36.07
2017-12-21T08:33:10.422Z,38.63
2017-12-21T08:35:38.570Z,36.63
2017-12-21T08:38:06.704Z,37.90
2017-12-21T08:40:34.853Z,36.07
2017-12-21T08:43:03.832Z,35.80
2017-12-21T08:45:32.628Z,38.47
2017-12-21T08:48:01.510Z,35.50
2017-12-21T08:50:30.412Z,35.93
2017-12-21T08:52:58.549Z,40.13
2017-12-21T08:55:27.466Z,36.70
2017-12-21T08:57:55.885Z,45.67
2017-12-21T09:00:24.044Z,39.63
2017-12-21T09:02:52.961Z,36.20
2017-12-21T09:05:21.095Z,38.17
2017-12-21T09:07:50.769Z,40.40
2017-12-21T09:10:18.888Z,38.73
2017-12-21T09:12:47.806Z,35.43
2017-12-21T09:15:15.953Z,33.53
2017-12-21T09:17:44.093Z,39.07
2017-12-21T09:20:12.285Z,35.40
2017-12-21T09:22:40.449Z,38.63
2017-12-21T09:25:09.344Z,36.60
2017-12-21T09:27:38.254Z,36.60
2017-12-21T09:30:07.157Z,35.73
2017-12-21T09:32:36.063Z,40.63
2017-12-21T09:35:04.210Z,38.10
2017-12-21T09:37:32.325Z,40.30
2017-12-21T09:40:01.248Z,45.23
2017-12-21T09:42:29.380Z,47.33
2017-12-21T09:44:57.537Z,41.93
2017-12-21T09:47:25.678Z,51.93
2017-12-21T09:49:54.117Z,41.83
2017-12-21T09:52:22.249Z,51.70
2017-12-21T09:54:51.286Z,49.13
2017-12-21T09:57:19.420Z,39.57
2017-12-21T09:59:47.571Z,45.00
2017-12-21T10:02:16.541Z,44.23
2017-12-21T10:04:44.690Z,47.50
2017-12-21T10:07:12.810Z,45.77
2017-12-21T10:09:41.519Z,44.43
2017-12-21T10:12:10.430Z,49.67
2017-12-21T10:14:39.332Z,43.27
2017-12-21T10:17:07.477Z,45.07
2017-12-21T10:19:35.662Z,48.50
2017-12-21T10:22:03.795Z,47.17
2017-12-21T10:24:32.747Z,45.67
2017-12-21T10:27:00.874Z,44.83
2017-12-21T10:29:29.777Z,45.10
2017-12-21T10:31:57.913Z,42.90
2017-12-21T10:34:26.069Z,43.07
2017-12-21T10:36:54.242Z,45.10
2017-12-21T10:39:23.140Z,38.40
2017-12-21T10:41:51.278Z,44.47
2017-12-21T10:44:20.424Z,42.87
2017-12-21T10:46:48.576Z,44.20
2017-12-21T10:49:16.696Z,39.13
2017-12-21T10:51:44.850Z,46.77
2017-12-21T10:54:13.011Z,42.27
2017-12-21T10:56:41.145Z,46.17
2017-12-21T10:59:09.287Z,53.30
2017-12-21T11:01:37.415Z,48.60
2017-12-21T11:04:05.564Z,42.20
2017-12-21T11:06:33.687Z,42.43
2017-12-21T11:09:01.841Z,38.57
2017-12-21T11:11:29.978Z,48.33
2017-12-21T11:13:58.898Z,40.50
2017-12-21T11:16:27.816Z,41.47
2017-12-21T11:18:56.732Z,45.10
2017-12-21T11:21:25.122Z,38.83
2017-12-21T11:23:53.283Z,59.97
2017-12-21T11:26:22.180Z,44.70
2017-12-21T11:28:51.076Z,42.57
2017-12-21T11:31:20.005Z,45.80
2017-12-21T11:33:48.141Z,39.83
2017-12-21T11:36:17.059Z,45.93
2017-12-21T11:38:45.203Z,36.80
2017-12-21T11:41:14.278Z,39.10
2017-12-21T11:43:43.171Z,41.67
2017-12-21T11:46:12.960Z,38.30
2017-12-21T11:48:41.643Z,37.30
2017-12-21T11:51:09.777Z,34.10
2017-12-21T11:53:37.936Z,44.80
2017-12-21T11:56:06.105Z,36.60
2017-12-21T11:58:35.098Z,36.10
2017-12-21T12:01:03.246Z,35.43
2017-12-21T12:03:32.162Z,38.47
2017-12-21T12:06:01.091Z,36.20
2017-12-21T12:08:29.281Z,35.70
2017-12-21T12:10:57.430Z,31.47
2017-12-21T12:13:28.157Z,34.60
2017-12-21T12:15:56.304Z,36.23
2017-12-21T12:18:24.465Z,38.63
2017-12-21T12:20:53.807Z,38.37
2017-12-21T12:23:22.447Z,35.50
2017-12-21T12:25:50.594Z,31.10
2017-12-21T12:28:18.753Z,31.60
2017-12-21T12:30:46.934Z,33.97
2017-12-21T12:33:15.084Z,34.77
2017-12-21T12:35:43.220Z,35.83
2017-12-21T12:38:11.370Z,42.70
2017-12-21T12:40:40.633Z,34.50
2017-12-21T12:43:08.777Z,36.47
2017-12-21T12:45:37.720Z,33.23
2017-12-21T12:48:05.878Z,31.93
2017-12-21T12:50:34.046Z,32.90
2017-12-21T12:53:02.212Z,35.00
2017-12-21T12:55:30.379Z,28.57
2017-12-21T12:57:58.574Z,33.53
2017-12-21T13:00:26.741Z,30.07
2017-12-21T13:02:54.961Z,30.73
2017-12-21T13:05:24.018Z,37.83
2017-12-21T13:07:52.186Z,35.30
2017-12-21T13:10:21.091Z,33.03
2017-12-21T13:12:50.037Z,29.70
2017-12-21T13:15:18.183Z,31.90
2017-12-21T13:17:47.419Z,31.03
2017-12-21T13:20:16.264Z,34.20
2017-12-21T13:22:44.438Z,33.70
2017-12-21T13:25:13.573Z,33.67
2017-12-21T13:27:41.718Z,37.90
2017-12-21T13:30:09.860Z,38.10
2017-12-21T13:32:38.753Z,31.77
2017-12-21T13:35:07.676Z,34.93
2017-12-21T13:37:36.581Z,30.20
2017-12-21T13:40:05.497Z,33.67
2017-12-21T13:42:34.417Z,35.53
2017-12-21T13:45:02.534Z,37.43
2017-12-21T13:47:30.683Z,38.10
2017-12-21T13:49:58.844Z,40.27
2017-12-21T13:52:27.750Z,36.87
2017-12-21T13:54:57.455Z,43.07
2017-12-21T13:57:25.585Z,35.13
2017-12-21T13:59:53.773Z,42.70
2017-12-21T14:02:21.897Z,35.83
2017-12-21T14:04:50.068Z,32.90
2017-12-21T14:07:18.881Z,35.87
2017-12-21T14:09:47.054Z,34.83
2017-12-21T14:12:15.196Z,34.90
2017-12-21T14:14:43.321Z,31.70
2017-12-21T14:17:11.481Z,34.13
2017-12-21T14:19:39.645Z,32.50
2017-12-21T14:22:07.808Z,35.57
2017-12-21T14:24:35.934Z,38.97
2017-12-21T14:27:04.107Z,39.33
2017-12-21T14:29:32.258Z,34.70
2017-12-21T14:32:00.414Z,29.27
2017-12-21T14:34:28.549Z,39.17
2017-12-21T14:36:57.476Z,33.20
2017-12-21T14:39:26.976Z,28.90
2017-12-21T14:41:55.883Z,32.77
2017-12-21T14:44:24.787Z,32.87
2017-12-21T14:46:54.220Z,28.13
2017-12-21T14:49:23.060Z,31.70
2017-12-21T14:51:51.217Z,26.97
2017-12-21T14:54:19.372Z,27.70
2017-12-21T14:56:48.352Z,26.10
2017-12-21T14:59:16.528Z,23.20
2017-12-21T15:01:44.682Z,24.50
2017-12-21T15:04:12.830Z,24.70
2017-12-21T15:06:41.764Z,25.07
2017-12-21T15:09:10.694Z,29.00
2017-12-21T15:11:38.833Z,26.00
2017-12-21T15:14:07.766Z,29.93
2017-12-21T15:16:35.892Z,30.43
2017-12-21T15:19:04.049Z,27.03
2017-12-21T15:21:32.196Z,29.83
2017-12-21T15:24:01.124Z,27.97
2017-12-21T15:26:30.039Z,29.50
2017-12-21T15:28:58.179Z,28.63
2017-12-21T15:31:26.325Z,32.47
2017-12-21T15:33:54.488Z,30.33
2017-12-21T15:36:22.614Z,36.00
2017-12-21T15:38:50.756Z,32.63
2017-12-21T15:41:18.907Z,30.97
2017-12-21T15:43:47.061Z,32.97
2017-12-21T15:46:15.194Z,32.23
2017-12-21T15:48:44.129Z,35.60
2017-12-21T15:51:12.265Z,36.27
2017-12-21T15:53:41.176Z,30.77
2017-12-21T15:56:09.327Z,36.30
2017-12-21T15:58:37.480Z,32.37
2017-12-21T16:01:05.623Z,37.07
2017-12-21T16:03:33.753Z,35.83
2017-12-21T16:06:01.894Z,37.50
2017-12-21T16:08:30.034Z,36.70
2017-12-21T16:10:58.189Z,42.90
2017-12-21T16:13:27.085Z,34.67
2017-12-21T16:15:56.788Z,41.30
2017-12-21T16:18:24.913Z,34.00
2017-12-21T16:20:53.066Z,40.50
2017-12-21T16:23:21.199Z,43.40
2017-12-21T16:25:49.337Z,38.33
2017-12-21T16:28:17.493Z,35.27
2017-12-21T16:30:45.660Z,44.03
2017-12-21T16:33:13.797Z,48.33
2017-12-21T16:35:41.955Z,40.23
2017-12-21T16:38:10.077Z,35.57
2017-12-21T16:40:38.994Z,36.47
2017-12-21T16:43:07.135Z,37.43
2017-12-21T16:45:35.302Z,35.67
2017-12-21T16:48:03.454Z,33.83
2017-12-21T16:50:32.376Z,33.90
2017-12-21T16:53:00.533Z,39.97
2017-12-21T16:55:29.443Z,35.67
2017-12-21T16:57:58.389Z,35.33
2017-12-21T17:00:26.532Z,36.03
2017-12-21T17:02:57.106Z,42.30
2017-12-21T17:05:25.230Z,39.93
2017-12-21T17:07:53.854Z,37.90
2017-12-21T17:10:22.757Z,39.20
2017-12-21T17:12:51.710Z,41.57
2017-12-21T17:15:19.842Z,38.63
2017-12-21T17:17:47.970Z,36.93
2017-12-21T17:20:16.138Z,35.90
2017-12-21T17:22:44.290Z,37.93
2017-12-21T17:25:12.468Z,30.53
2017-12-21T17:27:40.630Z,30.17
2017-12-21T17:30:08.784Z,31.67
2017-12-21T17:32:36.962Z,31.10
2017-12-21T17:35:05.865Z,37.07
2017-12-21T17:37:34.027Z,31.53
2017-12-21T17:40:03.753Z,33.03
2017-12-21T17:42:31.931Z,31.90
2017-12-21T17:45:00.086Z,29.70
2017-12-21T17:47:28.253Z,30.10
2017-12-21T17:49:56.375Z,33.67
2017-12-21T17:52:24.548Z,30.70
2017-12-21T17:54:52.672Z,28.83
2017-12-21T17:57:22.004Z,34.90
2017-12-21T17:59:50.900Z,29.63
2017-12-21T18:02:19.833Z,28.37
2017-12-21T18:04:47.961Z,29.73
2017-12-21T18:07:16.106Z,29.67
2017-12-21T18:09:44.268Z,27.37
2017-12-21T18:12:12.431Z,24.90
2017-12-21T18:14:40.566Z,25.60
2017-12-21T18:17:08.728Z,29.73
2017-12-21T18:19:37.636Z,29.93
2017-12-21T18:22:05.800Z,31.93
2017-12-21T18:24:33.937Z,31.90
2017-12-21T18:27:02.103Z,30.33
2017-12-21T18:29:31.003Z,25.97
2017-12-21T18:31:59.165Z,34.50
2017-12-21T18:34:27.337Z,29.17
2017-12-21T18:36:56.304Z,32.67
2017-12-21T18:39:25.183Z,30.00
2017-12-21T18:41:54.089Z,27.60
2017-12-21T18:44:22.273Z,31.77
2017-12-21T18:46:51.175Z,30.57
2017-12-21T18:49:20.089Z,28.63
2017-12-21T18:51:48.244Z,28.47
2017-12-21T18:54:28.285Z,30.00
2017-12-21T18:56:56.422Z,30.80
2017-12-21T18:59:25.323Z,31.30
2017-12-21T19:01:54.254Z,33.47
2017-12-21T19:04:22.415Z,31.33
2017-12-21T19:06:51.296Z,33.23
2017-12-21T19:09:20.510Z,34.60
2017-12-21T19:11:48.649Z,33.67
2017-12-21T19:14:17.581Z,34.30
2017-12-21T19:16:45.730Z,35.60
2017-12-21T19:19:13.933Z,31.73
2017-12-21T19:21:42.098Z,30.13
2017-12-21T19:24:10.237Z,32.10
2017-12-21T19:26:38.396Z,30.93
2017-12-21T19:29:06.542Z,32.60
2017-12-21T19:31:35.454Z,32.13
2017-12-21T19:34:03.596Z,27.80
2017-12-21T19:36:31.749Z,35.33
2017-12-21T19:38:59.893Z,31.47
2017-12-21T19:41:28.819Z,28.57
2017-12-21T19:43:57.011Z,28.90
2017-12-21T19:46:25.983Z,31.00
2017-12-21T19:48:54.897Z,28.20
2017-12-21T19:51:24.583Z,30.03
2017-12-21T19:53:52.737Z,31.83
2017-12-21T19:56:20.894Z,28.93
2017-12-21T19:58:49.801Z,24.80
2017-12-21T20:01:17.955Z,27.40
2017-12-21T20:03:46.107Z,41.43
2017-12-21T20:06:15.062Z,25.17
2017-12-21T20:08:44.028Z,26.83
2017-12-21T20:11:12.201Z,27.77
2017-12-21T20:13:40.345Z,25.60
2017-12-21T20:16:08.473Z,27.87
2017-12-21T20:18:36.665Z,25.73
2017-12-21T20:21:04.794Z,25.50
2017-12-21T20:23:32.952Z,26.30
2017-12-21T20:26:01.096Z,26.53
2017-12-21T20:28:29.272Z,26.90
2017-12-21T20:30:58.196Z,29.63
2017-12-21T20:33:26.340Z,25.63
2017-12-21T20:35:55.274Z,26.37
2017-12-21T20:38:23.420Z,26.87
2017-12-21T20:40:51.582Z,26.37
2017-12-21T20:43:19.730Z,31.10
2017-12-21T20:45:47.913Z,24.93
2017-12-21T20:48:18.532Z,26.17
2017-12-21T20:50:46.647Z,27.57
2017-12-21T20:53:14.822Z,32.57
2017-12-21T20:55:43.741Z,31.70
2017-12-21T20:58:11.936Z,27.10
2017-12-21T21:00:40.106Z,31.00
2017-12-21T21:03:09.085Z,30.43
2017-12-21T21:05:37.245Z,39.73
2017-12-21T21:08:05.390Z,33.93
2017-12-21T21:10:33.553Z,34.40
2017-12-21T21:13:02.444Z,32.87
2017-12-21T21:15:30.623Z,31.70
2017-12-21T21:17:58.863Z,29.80
2017-12-21T21:20:27.007Z,34.10
2017-12-21T21:22:55.175Z,34.40
2017-12-21T21:25:23.316Z,28.27
2017-12-21T21:27:51.467Z,28.43
2017-12-21T21:30:20.841Z,33.37
2017-12-21T21:32:49.006Z,35.70
2017-12-21T21:35:17.174Z,33.17
2017-12-21T21:37:46.047Z,29.57
2017-12-21T21:40:14.217Z,29.33
2017-12-21T21:42:43.186Z,27.63
2017-12-21T21:45:11.313Z,28.30
2017-12-21T21:47:39.464Z,30.40
2017-12-21T21:50:08.766Z,28.30
2017-12-21T21:52:37.687Z,30.00
2017-12-21T21:55:05.826Z,32.00
2017-12-21T21:57:34.771Z,30.10
2017-12-21T22:00:02.913Z,29.43
2017-12-21T22:02:32.232Z,25.93
2017-12-21T22:05:00.369Z,26.20
2017-12-21T22:07:28.545Z,28.87
2017-12-21T22:09:58.248Z,23.80
2017-12-21T22:12:26.390Z,29.77
2017-12-21T22:14:54.535Z,28.93
2017-12-21T22:17:22.691Z,27.13
2017-12-21T22:19:51.601Z,23.20
2017-12-21T22:22:20.517Z,27.60
2017-12-21T22:24:48.675Z,24.00
2017-12-21T22:27:16.808Z,22.67
2017-12-21T22:29:44.966Z,25.00
2017-12-21T22:32:13.862Z,22.63
2017-12-21T22:34:42.778Z,24.00
2017-12-21T22:37:10.936Z,22.47
2017-12-21T22:39:39.104Z,25.63
2017-12-21T22:42:07.264Z,19.40
2017-12-21T22:44:35.402Z,24.13
2017-12-21T22:47:04.352Z,26.23
2017-12-21T22:49:32.486Z,22.60
2017-12-21T22:52:00.637Z,21.33
2017-12-21T22:54:28.798Z,23.50
2017-12-21T22:56:57.704Z,22.70
2017-12-21T22:59:25.849Z,25.13
2017-12-21T23:01:54.779Z,23.30
2017-12-21T23:04:23.674Z,20.33
2017-12-21T23:06:52.603Z,22.53
2017-12-21T23:09:20.734Z,17.43
2017-12-21T23:11:49.657Z,15.80
2017-12-21T23:14:17.872Z,18.67
2017-12-21T23:16:46.025Z,18.17
2017-12-21T23:19:14.169Z,18.10
2017-12-21T23:21:42.302Z,17.60
2017-12-21T23:24:11.227Z,19.10
2017-12-21T23:26:40.137Z,20.00
2017-12-21T23:29:08.287Z,16.00
2017-12-21T23:31:36.411Z,19.00
2017-12-21T23:34:04.742Z,16.77
2017-12-21T23:36:32.869Z,18.20
2017-12-21T23:39:01.777Z,16.53
2017-12-21T23:41:30.742Z,16.73
2017-12-21T23:43:58.906Z,16.07
2017-12-21T23:46:27.041Z,14.93
2017-12-21T23:48:56.214Z,14.70
2017-12-21T23:51:24.340Z,17.50
2017-12-21T23:53:53.262Z,17.30
2017-12-21T23:56:21.392Z,16.00
2017-12-21T23:58:49.537Z,14.57
